CheckWX is a tool to help pilots better visualize weather data.  It is not intended as a substitute for an official pre-flight weather briefing.

05:25:03 UTC

LHPP METAR
Pécs-Pogány Airport
Pécs-Pogány, Hungary
Current

40 mins ago

LHPP 210445Z 11002KT 0300 FG FEW020 05/05 Q1013
Observed
Nov-21 @ 04:45 UTC
Wind
  • 110° at 2 KTS
Visibility
300 meters
Flight Rules
LIFR
Conditions
Fog
Cloud Levels
  • Few at 2,000' AGL
Temperature
C / 41°F
Dewpoint
C / 41°F
Humidity
100%
Altimeter
29.91" Hg
Pressure
1012.92 hPa
Previous

12 hours ago

LHPP 201745Z 09004KT 9999 BKN016 10/10 Q1011
Observed
Nov-20 @ 17:45 UTC
Wind
  • 090° at 4 KTS
Visibility
10,000+ meters
Flight Rules
MVFR
Cloud Levels
  • Broken at 1,600' AGL
Temperature
10°C / 50°F
Dewpoint
10°C / 50°F
Humidity
100%
Altimeter
29.85" Hg
Pressure
1010.92 hPa
Previous

12 hours ago

LHPP 201715Z 09003KT 8000 BKN016 11/11 Q1011
Observed
Nov-20 @ 17:15 UTC
Wind
  • 090° at 3 KTS
Visibility
8,000 meters
Flight Rules
MVFR
Cloud Levels
  • Broken at 1,600' AGL
Temperature
11°C / 52°F
Dewpoint
11°C / 52°F
Humidity
100%
Altimeter
29.85" Hg
Pressure
1010.92 hPa